Terminal Aerodrome Forecast
Issued by NWS Twin Cities, MN

Home | Current Version | Previous Version | Graphics & Text | Print | Product List | Glossary On
Versions: 1 2 3 4 5 6 7 8 9 10 11 12 13 14 15 16 17 18
000
FTUS43 KMPX 292300
TAFSTC
TAF
KSTC 292331Z 3000/3024 06009KT P6SM OVC022
     FM300130 08008KT P6SM SCT012 SCT025
     FM300900 09006KT P6SM SCT008 BKN012
      TEMPO 3009/3013 5SM BR BKN008
     FM301400 11011KT P6SM SCT010 BKN020
     FM301600 12013G21KT P6SM SCT020 SCT050
     FM302300 12011KT 6SM -SHRA BR SCT025 BKN050=

USA.gov is the U.S. government's official web portal to all federal, state and local government web resources and services.